Time;durP1;ratioP1;P1;durP2;ratioP2;P2;SDS_P1;SDS_P2;PMS_P1;PMS_P2;Temp;Humidity;BMP_temperature;BMP_pressure;BME280_temperature;BME280_humidity;BME280_pressure;Samples;Min_cycle;Max_cycle;Signal;HPM_P1;HPM_P2
2021/11/21 00:00:14;;;;;;;15.30;10.82;;;4.00;99.90;;;;;;1957372;72;21059;-77
2021/11/21 00:02:40;;;;;;;17.82;11.63;;;4.00;99.90;;;;;;1955012;70;21067;-76
2021/11/21 00:05:06;;;;;;;18.92;12.00;;;4.00;99.90;;;;;;1952208;70;21127;-75
2021/11/21 00:07:32;;;;;;;13.05;10.60;;;4.10;99.90;;;;;;1966570;70;21120;-74
2021/11/21 00:09:58;;;;;;;16.25;10.95;;;4.00;99.90;;;;;;1981174;70;21059;-76
2021/11/21 00:12:25;;;;;;;15.68;11.20;;;4.00;99.90;;;;;;1957967;70;21558;-76
2021/11/21 00:14:51;;;;;;;16.73;12.55;;;4.10;99.90;;;;;;1946179;70;21060;-76
2021/11/21 00:17:17;;;;;;;14.95;12.53;;;4.10;99.90;;;;;;1963602;70;21274;-76
2021/11/21 00:19:43;;;;;;;20.77;12.28;;;4.10;99.90;;;;;;1966946;70;21117;-76
2021/11/21 00:22:12;;;;;;;16.77;12.37;;;4.10;99.90;;;;;;1964019;70;21161;-76
2021/11/21 00:27:21;;;;;;;14.90;11.30;;;4.10;99.90;;;;;;1975381;71;21683;-77
2021/11/21 00:29:48;;;;;;;12.50;10.53;;;4.20;99.90;;;;;;1977026;71;21185;-75
2021/11/21 00:32:14;;;;;;;14.98;11.10;;;4.30;99.90;;;;;;1966329;71;21293;-75
2021/11/21 00:34:41;;;;;;;17.87;12.20;;;4.40;99.90;;;;;;1962917;70;21475;-76
2021/11/21 00:37:08;;;;;;;23.32;12.28;;;4.20;99.90;;;;;;1972576;71;21128;-77
2021/11/21 00:39:34;;;;;;;14.73;11.95;;;4.10;99.90;;;;;;1978971;70;21467;-75
2021/11/21 00:42:00;;;;;;;17.77;11.55;;;4.10;99.90;;;;;;1979158;70;21481;-75
2021/11/21 00:44:26;;;;;;;17.92;12.20;;;4.30;99.90;;;;;;1975283;70;21470;-75
2021/11/21 00:46:52;;;;;;;27.22;12.03;;;4.30;99.90;;;;;;1965116;71;21490;-75
2021/11/21 00:49:20;;;;;;;15.45;10.88;;;4.30;99.90;;;;;;1967969;70;21055;-77
2021/11/21 00:51:46;;;;;;;16.15;10.98;;;4.20;99.90;;;;;;1965856;70;21040;-76
2021/11/21 00:54:30;;;;;;;13.72;10.45;;;4.20;99.90;;;;;;1977342;70;21130;-77
2021/11/21 00:56:51;;;;;;;16.55;10.43;;;4.20;99.90;;;;;;1970771;71;21191;-76
2021/11/21 00:59:20;;;;;;;15.38;10.10;;;4.20;99.90;;;;;;1967781;70;21043;-76
2021/11/21 01:01:46;;;;;;;15.83;10.87;;;4.20;99.90;;;;;;1970755;70;21066;-77
2021/11/21 01:04:12;;;;;;;13.15;9.98;;;4.20;99.90;;;;;;1968567;71;21020;-76
2021/11/21 01:06:38;;;;;;;19.07;10.95;;;4.20;99.90;;;;;;1943763;71;21058;-77
2021/11/21 01:09:04;;;;;;;13.18;9.88;;;4.10;99.90;;;;;;1951123;70;21132;-77
2021/11/21 01:11:30;;;;;;;11.97;8.93;;;4.00;99.90;;;;;;1975671;70;21054;-75
2021/11/21 01:13:56;;;;;;;12.93;9.70;;;4.00;99.90;;;;;;1982437;70;21032;-75
2021/11/21 01:16:23;;;;;;;11.55;9.58;;;4.00;99.90;;;;;;1940744;71;21064;-75
2021/11/21 01:18:49;;;;;;;13.95;10.85;;;3.90;99.90;;;;;;1983665;70;21063;-76
2021/11/21 01:21:15;;;;;;;17.12;11.75;;;3.90;99.90;;;;;;1956960;71;21471;-76
2021/11/21 01:23:41;;;;;;;13.95;10.78;;;3.80;99.90;;;;;;1946809;71;21063;-76
2021/11/21 01:26:07;;;;;;;13.72;10.05;;;3.80;99.90;;;;;;1985046;70;21032;-76
2021/11/21 01:28:33;;;;;;;14.85;11.00;;;3.90;99.90;;;;;;1943515;72;21101;-76
2021/11/21 01:31:00;;;;;;;15.30;9.90;;;3.80;99.90;;;;;;1967758;70;21055;-76
2021/11/21 01:33:26;;;;;;;13.58;9.55;;;3.70;99.90;;;;;;1952789;71;21137;-76
2021/11/21 01:35:52;;;;;;;13.93;10.68;;;3.70;99.90;;;;;;1965026;70;21066;-76
2021/11/21 01:38:19;;;;;;;12.80;10.23;;;3.80;99.90;;;;;;1970695;71;21145;-75
2021/11/21 01:40:45;;;;;;;13.80;10.30;;;3.80;99.90;;;;;;1963803;71;21074;-76
2021/11/21 01:43:11;;;;;;;14.07;10.38;;;3.70;99.90;;;;;;1971527;71;21044;-76
2021/11/21 01:45:37;;;;;;;15.38;10.63;;;3.60;99.90;;;;;;1979988;70;21145;-75
2021/11/21 01:48:04;;;;;;;17.70;11.45;;;3.60;99.90;;;;;;1980253;70;21144;-76
2021/11/21 01:50:30;;;;;;;13.18;10.05;;;3.60;99.90;;;;;;1967566;70;21138;-74
2021/11/21 01:52:56;;;;;;;18.48;11.95;;;3.60;99.90;;;;;;1964059;70;21189;-74
2021/11/21 01:55:23;;;;;;;13.22;10.70;;;3.50;99.90;;;;;;1978314;70;21528;-76
2021/11/21 01:57:50;;;;;;;11.33;10.05;;;3.50;99.90;;;;;;1976105;71;22994;-76
2021/11/21 02:00:16;;;;;;;18.75;10.88;;;3.50;99.90;;;;;;1974844;71;21197;-76
2021/11/21 02:02:42;;;;;;;13.93;9.78;;;3.50;99.90;;;;;;1975421;70;21122;-76
2021/11/21 02:05:08;;;;;;;14.45;10.55;;;3.60;99.90;;;;;;1961768;71;21031;-76
2021/11/21 02:07:34;;;;;;;13.78;10.55;;;3.60;99.90;;;;;;1976539;70;21133;-75
2021/11/21 02:10:00;;;;;;;11.53;9.88;;;3.60;99.90;;;;;;1965662;70;21059;-77
2021/11/21 02:12:26;;;;;;;14.68;11.10;;;3.50;99.90;;;;;;1946722;70;21058;-76
2021/11/21 02:14:53;;;;;;;21.85;10.65;;;3.50;99.90;;;;;;1961951;70;21063;-76
2021/11/21 02:17:19;;;;;;;13.20;10.70;;;3.50;99.90;;;;;;1977351;70;21032;-77
2021/11/21 02:19:45;;;;;;;16.05;11.10;;;3.50;99.90;;;;;;1958870;71;21036;-77
2021/11/21 02:22:11;;;;;;;12.40;10.35;;;3.60;99.90;;;;;;1964029;70;21055;-79
2021/11/21 02:24:37;;;;;;;14.68;11.15;;;3.60;99.90;;;;;;1983502;71;21137;-78
2021/11/21 02:27:03;;;;;;;15.68;10.53;;;3.60;99.90;;;;;;1950642;70;21124;-78
2021/11/21 02:29:29;;;;;;;17.20;11.15;;;3.60;99.90;;;;;;1975820;70;21120;-78
2021/11/21 02:31:55;;;;;;;11.85;10.30;;;3.60;99.90;;;;;;1977948;70;21032;-78
2021/11/21 02:34:22;;;;;;;18.77;12.28;;;3.60;99.90;;;;;;1970603;70;21136;-78
2021/11/21 02:36:49;;;;;;;17.85;12.07;;;3.60;99.90;;;;;;1965664;70;21199;-78
2021/11/21 02:39:16;;;;;;;16.85;11.38;;;3.60;99.90;;;;;;1966223;70;21207;-79
2021/11/21 02:41:43;;;;;;;15.58;11.78;;;3.50;99.90;;;;;;1977298;71;21058;-78
2021/11/21 02:44:09;;;;;;;17.15;12.13;;;3.50;99.90;;;;;;1969478;70;21199;-78
2021/11/21 02:46:36;;;;;;;14.50;11.85;;;3.50;99.90;;;;;;1944130;70;21176;-78
2021/11/21 02:49:02;;;;;;;15.30;12.10;;;3.50;99.90;;;;;;1970240;70;21196;-78
2021/11/21 02:51:30;;;;;;;17.12;11.80;;;3.60;99.90;;;;;;1972610;70;21140;-78
2021/11/21 02:53:58;;;;;;;18.85;12.68;;;3.60;99.90;;;;;;1963449;70;21067;-78
2021/11/21 02:56:24;;;;;;;15.80;11.05;;;3.60;99.90;;;;;;1948285;70;21242;-79
2021/11/21 02:58:50;;;;;;;14.45;12.10;;;3.60;99.90;;;;;;1975857;70;21128;-79
2021/11/21 03:01:16;;;;;;;21.50;11.73;;;3.70;99.90;;;;;;1955062;70;21035;-79
2021/11/21 03:03:42;;;;;;;15.85;11.70;;;3.70;99.90;;;;;;1964352;70;21446;-78
2021/11/21 03:06:09;;;;;;;18.98;12.03;;;3.70;99.90;;;;;;1965025;71;21054;-78
2021/11/21 03:08:35;;;;;;;17.12;12.28;;;3.60;99.90;;;;;;1945500;71;21071;-79
2021/11/21 03:11:03;;;;;;;16.23;11.15;;;3.60;99.90;;;;;;1979266;70;21120;-78
2021/11/21 03:13:29;;;;;;;16.20;12.68;;;3.60;99.90;;;;;;1989683;70;21153;-78
2021/11/21 03:15:56;;;;;;;16.60;12.10;;;3.60;99.90;;;;;;1983042;70;21138;-78
2021/11/21 03:18:22;;;;;;;14.15;12.47;;;3.60;99.90;;;;;;1961723;70;21070;-78
2021/11/21 03:20:48;;;;;;;15.55;11.95;;;3.70;99.90;;;;;;1957247;70;21043;-77
2021/11/21 03:23:14;;;;;;;21.48;12.82;;;3.60;99.90;;;;;;1941620;70;21120;-77
2021/11/21 03:25:40;;;;;;;17.90;12.28;;;3.60;99.90;;;;;;1976705;70;21075;-77
2021/11/21 03:28:07;;;;;;;17.85;13.13;;;3.60;99.90;;;;;;1967331;71;21116;-78
2021/11/21 03:30:33;;;;;;;17.52;13.28;;;3.50;99.90;;;;;;1965730;70;21028;-77
2021/11/21 03:32:59;;;;;;;25.27;14.23;;;3.30;99.90;;;;;;1976125;70;21121;-77
2021/11/21 03:35:25;;;;;;;20.97;13.30;;;3.30;99.90;;;;;;1966316;71;21246;-78
2021/11/21 03:37:51;;;;;;;19.87;13.38;;;3.40;99.90;;;;;;1967831;72;21052;-77
2021/11/21 03:40:17;;;;;;;21.12;14.70;;;3.30;99.90;;;;;;1958255;70;21063;-79
2021/11/21 03:42:43;;;;;;;15.13;12.95;;;3.20;99.90;;;;;;1969868;70;21622;-77
2021/11/21 03:45:09;;;;;;;22.55;14.33;;;3.30;99.90;;;;;;1964226;71;21478;-77
2021/11/21 03:47:36;;;;;;;17.75;13.22;;;3.30;99.90;;;;;;1983024;70;21144;-77
2021/11/21 03:50:02;;;;;;;21.33;13.45;;;3.40;99.90;;;;;;1940026;71;21258;-77
2021/11/21 03:52:28;;;;;;;16.52;12.60;;;3.30;99.90;;;;;;1935752;71;21060;-77
2021/11/21 03:54:54;;;;;;;18.55;12.65;;;3.20;99.90;;;;;;1952112;71;21106;-78
2021/11/21 03:57:20;;;;;;;20.90;12.95;;;3.20;99.90;;;;;;1971226;70;21067;-78
2021/11/21 03:59:46;;;;;;;18.05;12.73;;;3.10;99.90;;;;;;1952784;70;21059;-78
2021/11/21 04:02:12;;;;;;;17.85;12.05;;;3.10;99.90;;;;;;1964262;70;21189;-78
2021/11/21 04:04:38;;;;;;;18.60;12.80;;;3.10;99.90;;;;;;1933663;70;21070;-77
2021/11/21 04:07:05;;;;;;;14.80;11.83;;;3.10;99.90;;;;;;1982295;70;21105;-78
2021/11/21 04:09:31;;;;;;;15.78;11.90;;;3.10;99.90;;;;;;1958394;71;21062;-78
2021/11/21 04:11:57;;;;;;;21.15;12.47;;;3.10;99.90;;;;;;1968028;70;21058;-77
2021/11/21 04:14:23;;;;;;;16.60;11.70;;;3.10;99.90;;;;;;1950594;70;21067;-77
2021/11/21 04:16:49;;;;;;;14.98;11.73;;;3.10;99.90;;;;;;1944587;70;21115;-78
2021/11/21 04:19:15;;;;;;;17.60;11.85;;;3.00;99.90;;;;;;1988650;70;21199;-78
2021/11/21 04:21:41;;;;;;;14.58;11.95;;;3.00;99.90;;;;;;1987703;70;21129;-78
2021/11/21 04:24:12;;;;;;;18.45;12.07;;;2.90;99.90;;;;;;1965376;71;21113;-77
2021/11/21 04:26:35;;;;;;;22.57;13.13;;;2.90;99.90;;;;;;1960609;70;21107;-78
2021/11/21 04:29:02;;;;;;;15.32;11.38;;;2.90;99.90;;;;;;1979770;70;21032;-78
2021/11/21 04:31:28;;;;;;;19.62;12.65;;;2.90;99.90;;;;;;1962745;70;21085;-78
2021/11/21 04:33:55;;;;;;;17.30;11.73;;;2.80;99.90;;;;;;1981080;72;21111;-78
2021/11/21 04:36:21;;;;;;;14.30;11.28;;;2.90;99.90;;;;;;1971278;70;21052;-78
2021/11/21 04:38:48;;;;;;;14.13;11.03;;;2.90;99.90;;;;;;1953208;70;21192;-78
2021/11/21 04:41:14;;;;;;;15.35;10.78;;;3.00;99.90;;;;;;1963391;71;22467;-78
2021/11/21 04:43:40;;;;;;;16.62;11.88;;;2.90;99.90;;;;;;1976633;70;21138;-78
2021/11/21 04:46:06;;;;;;;23.00;12.13;;;2.80;99.90;;;;;;1978370;70;21141;-77
2021/11/21 04:48:32;;;;;;;17.45;11.10;;;2.80;99.90;;;;;;1971143;71;21129;-77
2021/11/21 04:50:59;;;;;;;22.30;12.15;;;2.70;99.90;;;;;;1974169;70;21218;-76
2021/11/21 04:53:26;;;;;;;13.15;10.45;;;2.70;99.90;;;;;;1974898;71;21124;-78
2021/11/21 04:55:52;;;;;;;13.58;11.40;;;2.70;99.90;;;;;;1982634;70;21112;-77
2021/11/21 04:58:18;;;;;;;13.50;10.63;;;2.70;99.90;;;;;;1965192;70;21035;-77
2021/11/21 05:00:44;;;;;;;11.53;10.13;;;2.70;99.90;;;;;;1936671;71;21062;-78
2021/11/21 05:03:11;;;;;;;12.82;10.38;;;2.80;99.90;;;;;;1970514;71;21063;-76
2021/11/21 05:05:37;;;;;;;14.65;10.70;;;2.90;99.90;;;;;;1966273;70;21484;-78
2021/11/21 05:08:04;;;;;;;14.23;10.10;;;2.90;99.90;;;;;;1973805;70;21548;-77
2021/11/21 05:10:30;;;;;;;11.73;9.10;;;3.00;99.90;;;;;;1970746;71;21214;-78
2021/11/21 05:12:56;;;;;;;13.85;9.50;;;3.00;99.90;;;;;;1958915;71;21035;-77
2021/11/21 05:15:24;;;;;;;12.40;9.93;;;3.00;99.90;;;;;;1953749;70;21059;-78
2021/11/21 05:17:50;;;;;;;9.85;8.85;;;2.90;99.90;;;;;;1948371;71;21129;-78
2021/11/21 05:20:16;;;;;;;14.53;10.08;;;2.80;99.90;;;;;;1979848;70;21062;-77
2021/11/21 05:22:43;;;;;;;14.35;9.98;;;2.80;99.90;;;;;;1961447;71;21251;-77
2021/11/21 05:25:09;;;;;;;14.30;9.98;;;2.80;99.90;;;;;;1975190;70;21140;-78
2021/11/21 05:27:35;;;;;;;17.55;11.45;;;2.80;99.90;;;;;;1957499;71;21032;-77
2021/11/21 05:30:01;;;;;;;11.65;10.20;;;2.70;99.90;;;;;;1968786;70;21031;-77
2021/11/21 05:32:27;;;;;;;11.95;10.15;;;2.70;99.90;;;;;;1972196;71;21126;-77
2021/11/21 05:34:53;;;;;;;11.53;9.63;;;2.60;99.90;;;;;;1961985;71;21142;-76
2021/11/21 05:37:19;;;;;;;12.00;10.08;;;2.50;99.90;;;;;;1957632;71;21185;-77
2021/11/21 05:39:45;;;;;;;29.30;10.90;;;2.60;99.90;;;;;;1947455;71;21052;-76
2021/11/21 05:42:13;;;;;;;12.60;9.90;;;2.60;99.90;;;;;;1959627;70;21040;-76
2021/11/21 05:44:39;;;;;;;13.78;10.72;;;2.50;99.90;;;;;;1960420;71;21162;-75
2021/11/21 05:47:06;;;;;;;12.30;10.55;;;2.50;99.90;;;;;;1984757;71;21062;-77
2021/11/21 05:49:32;;;;;;;10.72;9.60;;;2.40;99.90;;;;;;1964738;70;21125;-77
2021/11/21 05:51:58;;;;;;;16.55;9.75;;;2.40;99.90;;;;;;1962026;72;21067;-77
2021/11/21 05:54:24;;;;;;;12.63;10.32;;;2.50;99.90;;;;;;1950421;70;21132;-78
2021/11/21 05:56:51;;;;;;;10.98;9.55;;;2.50;99.90;;;;;;1944942;71;21031;-78
2021/11/21 05:59:17;;;;;;;11.95;9.25;;;2.60;99.90;;;;;;1962433;71;21431;-78
2021/11/21 06:01:43;;;;;;;10.53;9.05;;;2.60;99.90;;;;;;1961982;70;21525;-78
2021/11/21 06:04:09;;;;;;;10.03;8.73;;;2.60;99.90;;;;;;1952238;70;21460;-78
2021/11/21 06:06:35;;;;;;;13.35;8.45;;;2.60;99.90;;;;;;1956640;70;21502;-77
2021/11/21 06:09:02;;;;;;;10.30;8.48;;;2.60;99.90;;;;;;1969179;71;21067;-78
2021/11/21 06:11:28;;;;;;;11.45;7.67;;;2.70;99.90;;;;;;1980094;71;21172;-77
2021/11/21 06:13:54;;;;;;;14.00;9.33;;;2.70;99.90;;;;;;1947460;70;21136;-77
2021/11/21 06:16:21;;;;;;;9.10;8.10;;;2.70;99.90;;;;;;1951224;72;21032;-78
2021/11/21 06:18:47;;;;;;;13.05;8.95;;;2.60;99.90;;;;;;1975109;70;21263;-78
2021/11/21 06:21:14;;;;;;;9.80;8.63;;;2.40;99.90;;;;;;1959792;70;21075;-77
2021/11/21 06:23:40;;;;;;;13.83;8.90;;;2.40;99.90;;;;;;1961549;71;21198;-77
2021/11/21 06:26:06;;;;;;;9.55;8.55;;;2.40;99.90;;;;;;1956051;70;21462;-78
2021/11/21 06:28:32;;;;;;;19.27;10.40;;;2.40;99.90;;;;;;1973544;71;21541;-78
2021/11/21 06:30:58;;;;;;;10.10;8.00;;;2.40;99.90;;;;;;1960405;70;21919;-78
2021/11/21 06:33:25;;;;;;;13.28;10.28;;;2.40;99.90;;;;;;1962166;70;21180;-77
2021/11/21 06:35:51;;;;;;;15.83;10.30;;;2.40;99.90;;;;;;1974830;70;21235;-77
2021/11/21 06:38:21;;;;;;;12.65;10.03;;;2.40;99.90;;;;;;1974167;70;21437;-78
2021/11/21 06:40:47;;;;;;;13.68;10.00;;;2.40;99.90;;;;;;1948018;71;21178;-78
2021/11/21 06:43:13;;;;;;;12.78;9.45;;;2.40;99.90;;;;;;1966252;70;21036;-79
2021/11/21 06:45:39;;;;;;;10.55;9.03;;;2.40;99.90;;;;;;1975469;71;21116;-79
2021/11/21 06:48:10;;;;;;;10.72;9.63;;;2.50;99.90;;;;;;1970263;70;21204;-78
2021/11/21 06:50:33;;;;;;;12.05;9.83;;;2.50;99.90;;;;;;1964456;71;21063;-79
2021/11/21 06:52:59;;;;;;;11.57;9.08;;;2.40;99.90;;;;;;1974301;70;21064;-78
2021/11/21 06:55:25;;;;;;;14.35;10.35;;;2.50;99.90;;;;;;1976012;71;21028;-78
2021/11/21 06:57:51;;;;;;;13.80;9.83;;;2.40;99.90;;;;;;1971355;71;21113;-78
2021/11/21 07:00:17;;;;;;;11.35;9.98;;;2.50;99.90;;;;;;1958470;70;21075;-79
2021/11/21 07:02:44;;;;;;;10.80;8.85;;;2.50;99.90;;;;;;1970896;70;21472;-78
2021/11/21 07:05:10;;;;;;;12.90;10.15;;;2.60;99.90;;;;;;1973478;70;21517;-78
2021/11/21 07:07:36;;;;;;;12.30;9.60;;;2.70;99.90;;;;;;1963763;71;21500;-78
2021/11/21 07:10:02;;;;;;;13.45;9.55;;;2.70;99.90;;;;;;1958963;70;21070;-78
2021/11/21 07:12:28;;;;;;;11.73;10.13;;;2.90;99.90;;;;;;1958965;70;21055;-77
2021/11/21 07:14:54;;;;;;;13.90;9.18;;;2.80;99.90;;;;;;1984832;71;21120;-77
2021/11/21 07:17:20;;;;;;;14.03;9.05;;;2.80;99.90;;;;;;1976925;70;21051;-78
2021/11/21 07:19:46;;;;;;;10.15;9.00;;;2.70;99.90;;;;;;1965928;70;21262;-77
2021/11/21 07:22:13;;;;;;;14.20;9.25;;;2.80;99.90;;;;;;1975551;70;21063;-78
2021/11/21 07:24:39;;;;;;;11.40;9.30;;;2.70;99.90;;;;;;1952035;71;21166;-78
2021/11/21 07:27:05;;;;;;;11.50;9.63;;;2.70;99.90;;;;;;1968676;71;21229;-78
2021/11/21 07:29:31;;;;;;;11.83;9.45;;;2.70;99.90;;;;;;1963304;70;21467;-78
2021/11/21 07:31:59;;;;;;;12.18;9.83;;;2.80;99.90;;;;;;1982111;71;21186;-75
2021/11/21 07:34:25;;;;;;;10.48;9.30;;;2.70;99.90;;;;;;1984888;70;21554;-72
2021/11/21 07:36:51;;;;;;;11.70;9.58;;;2.70;99.90;;;;;;1967250;70;21614;-73
2021/11/21 07:39:17;;;;;;;13.85;9.93;;;2.70;99.90;;;;;;1969627;70;21064;-74
2021/11/21 07:41:43;;;;;;;12.30;10.18;;;2.60;99.90;;;;;;1959620;70;21128;-77
2021/11/21 07:44:09;;;;;;;13.45;9.83;;;2.60;99.90;;;;;;1966342;70;21063;-79
2021/11/21 07:46:36;;;;;;;12.88;9.60;;;2.70;99.90;;;;;;1987344;70;21036;-79
2021/11/21 07:49:02;;;;;;;13.93;9.53;;;2.70;99.90;;;;;;1977023;70;21100;-74
2021/11/21 07:51:28;;;;;;;13.03;9.50;;;2.80;99.90;;;;;;1958629;71;21063;-73
2021/11/21 07:53:54;;;;;;;11.80;9.48;;;2.80;99.90;;;;;;1977136;70;21067;-73
2021/11/21 07:56:20;;;;;;;11.75;8.95;;;2.80;99.90;;;;;;1983960;71;21071;-73
2021/11/21 07:58:46;;;;;;;12.95;9.95;;;2.70;99.90;;;;;;1958974;71;21412;-74
2021/11/21 08:01:12;;;;;;;14.40;9.58;;;2.60;99.90;;;;;;1972470;70;21540;-74
2021/11/21 08:03:38;;;;;;;15.65;9.68;;;2.60;99.90;;;;;;1947548;71;21479;-74
2021/11/21 08:06:05;;;;;;;13.22;9.55;;;2.60;99.90;;;;;;1958285;70;21062;-75
2021/11/21 08:08:31;;;;;;;17.00;9.90;;;2.60;99.90;;;;;;1968291;70;21109;-72
2021/11/21 08:10:57;;;;;;;18.37;9.95;;;2.60;99.90;;;;;;1982747;70;21121;-74
2021/11/21 08:13:26;;;;;;;13.53;9.68;;;2.70;99.90;;;;;;1957134;71;21109;-76
2021/11/21 08:15:51;;;;;;;14.70;9.58;;;2.70;99.90;;;;;;1962857;71;21458;-75
2021/11/21 08:18:17;;;;;;;12.73;9.00;;;2.80;99.90;;;;;;1963403;70;21128;-75
2021/11/21 08:20:43;;;;;;;14.95;10.00;;;2.80;99.90;;;;;;1975908;70;21145;-76
2021/11/21 08:23:09;;;;;;;15.60;9.35;;;2.80;99.90;;;;;;1966118;71;21179;-77
2021/11/21 08:25:35;;;;;;;12.50;9.78;;;2.80;99.90;;;;;;1945940;72;21068;-77
2021/11/21 08:28:01;;;;;;;14.93;9.63;;;2.80;99.90;;;;;;1946555;71;21155;-76
2021/11/21 08:30:30;;;;;;;10.23;8.63;;;2.70;99.90;;;;;;1966521;71;21078;-75
2021/11/21 08:32:55;;;;;;;18.80;9.53;;;2.60;99.90;;;;;;1972245;71;21093;-75
2021/11/21 08:35:21;;;;;;;17.15;9.40;;;2.50;99.90;;;;;;1982999;72;21190;-75
2021/11/21 08:37:48;;;;;;;17.23;10.63;;;2.40;99.90;;;;;;1974044;70;21124;-75
2021/11/21 08:40:14;;;;;;;12.82;9.50;;;2.50;99.90;;;;;;1972085;71;21123;-77
2021/11/21 08:42:40;;;;;;;17.42;9.58;;;2.30;99.90;;;;;;1960828;70;21032;-77
2021/11/21 08:45:06;;;;;;;16.25;9.30;;;2.30;99.90;;;;;;1979864;72;21098;-76
2021/11/21 08:47:32;;;;;;;13.10;9.60;;;2.30;99.90;;;;;;1977585;70;21055;-76
2021/11/21 08:49:58;;;;;;;17.57;10.13;;;2.30;99.90;;;;;;1983243;70;21063;-76
2021/11/21 08:52:25;;;;;;;14.38;10.20;;;2.30;99.90;;;;;;1983954;70;21513;-77
2021/11/21 08:54:51;;;;;;;13.65;9.98;;;2.30;99.90;;;;;;1973667;70;21132;-75
2021/11/21 08:57:18;;;;;;;12.80;10.10;;;2.30;99.90;;;;;;1973976;72;21063;-78
2021/11/21 08:59:44;;;;;;;13.03;9.30;;;2.30;99.90;;;;;;1973692;71;21063;-75
2021/11/21 09:02:10;;;;;;;17.70;11.12;;;2.30;99.90;;;;;;1954583;71;21114;-79
2021/11/21 09:04:36;;;;;;;17.48;10.50;;;2.40;99.90;;;;;;1976413;71;21097;-76
2021/11/21 09:07:02;;;;;;;13.88;10.43;;;2.30;99.90;;;;;;1969609;72;21503;-75
2021/11/21 09:09:28;;;;;;;15.15;10.85;;;2.30;99.90;;;;;;1988187;71;21443;-76
2021/11/21 09:11:54;;;;;;;18.85;10.78;;;2.40;99.90;;;;;;1977706;70;21455;-74
2021/11/21 09:14:20;;;;;;;19.05;10.38;;;2.40;99.90;;;;;;1965767;71;21448;-74
2021/11/21 09:16:47;;;;;;;16.20;9.53;;;2.30;99.90;;;;;;1969476;71;21055;-75
2021/11/21 09:19:14;;;;;;;13.80;9.90;;;2.30;99.90;;;;;;1983291;70;21076;-75
2021/11/21 09:21:42;;;;;;;14.98;10.38;;;2.30;99.90;;;;;;1962763;70;21201;-75
2021/11/21 09:24:08;;;;;;;13.18;9.95;;;2.30;99.90;;;;;;1962717;70;21130;-75
2021/11/21 09:26:34;;;;;;;18.32;10.82;;;2.30;99.90;;;;;;1968011;71;21063;-74
2021/11/21 09:29:01;;;;;;;18.48;9.65;;;2.30;99.90;;;;;;1969832;71;21475;-76
2021/11/21 09:31:27;;;;;;;15.13;10.95;;;2.30;99.90;;;;;;1946536;71;21126;-76
2021/11/21 09:33:53;;;;;;;17.07;9.23;;;2.30;99.90;;;;;;1961321;70;21044;-78
2021/11/21 09:36:20;;;;;;;15.30;9.75;;;2.40;99.90;;;;;;1968871;72;21192;-74
2021/11/21 09:38:46;;;;;;;15.95;10.30;;;2.40;99.90;;;;;;1977330;71;21054;-78
2021/11/21 09:41:13;;;;;;;13.93;9.50;;;2.40;99.90;;;;;;1975569;70;21071;-77
2021/11/21 09:43:39;;;;;;;17.75;10.50;;;2.40;99.90;;;;;;1977839;71;21125;-76
2021/11/21 09:46:07;;;;;;;16.52;10.15;;;2.40;99.90;;;;;;1989096;72;21031;-75
2021/11/21 09:48:33;;;;;;;18.95;13.32;;;2.40;99.90;;;;;;1972809;70;21047;-74
2021/11/21 09:50:59;;;;;;;21.77;10.13;;;2.40;99.90;;;;;;1964010;71;21066;-74
2021/11/21 09:53:25;;;;;;;15.93;9.23;;;2.50;99.90;;;;;;1977720;71;21063;-74
2021/11/21 09:55:52;;;;;;;14.95;10.25;;;2.60;99.90;;;;;;1981194;72;21179;-73
2021/11/21 09:58:18;;;;;;;11.50;8.10;;;2.70;99.90;;;;;;1974176;72;21055;-74
2021/11/21 10:00:45;;;;;;;15.98;9.63;;;2.80;99.90;;;;;;1964373;70;21141;-76
2021/11/21 10:03:11;;;;;;;16.95;10.32;;;2.90;99.90;;;;;;1978256;70;21032;-75
2021/11/21 10:05:38;;;;;;;13.10;8.30;;;2.80;99.90;;;;;;1961539;70;21113;-76
2021/11/21 10:08:04;;;;;;;14.90;9.23;;;2.80;99.90;;;;;;1984998;71;21075;-76
2021/11/21 10:10:30;;;;;;;17.70;9.98;;;2.70;99.90;;;;;;1992176;70;21842;-74
2021/11/21 10:12:56;;;;;;;13.53;8.93;;;2.70;99.90;;;;;;1978849;71;21519;-71
2021/11/21 10:15:22;;;;;;;15.40;9.33;;;2.80;99.90;;;;;;1963619;71;21055;-73
2021/11/21 10:17:50;;;;;;;19.07;10.03;;;2.70;99.90;;;;;;1964140;71;21027;-74
2021/11/21 10:20:16;;;;;;;12.28;8.48;;;2.80;99.90;;;;;;1959027;71;21199;-75
2021/11/21 10:22:42;;;;;;;13.45;8.98;;;2.90;99.90;;;;;;1975928;70;21140;-75
2021/11/21 10:25:08;;;;;;;16.80;9.48;;;2.90;99.90;;;;;;1943874;71;21185;-75
2021/11/21 10:27:34;;;;;;;15.45;9.03;;;2.80;99.90;;;;;;1990740;70;21124;-75
2021/11/21 10:30:00;;;;;;;12.60;8.40;;;2.80;99.90;;;;;;1975603;71;21062;-75
2021/11/21 10:32:27;;;;;;;12.40;8.90;;;2.80;99.90;;;;;;1964481;70;21063;-77
2021/11/21 10:34:53;;;;;;;13.85;9.18;;;2.90;99.90;;;;;;1966755;70;21059;-76
2021/11/21 10:37:19;;;;;;;16.27;9.55;;;2.90;99.90;;;;;;1963432;70;21029;-77
2021/11/21 10:39:45;;;;;;;16.25;9.08;;;3.00;99.90;;;;;;1984205;70;21117;-76
2021/11/21 10:42:12;;;;;;;13.10;8.43;;;3.00;99.90;;;;;;1975292;70;21094;-76
2021/11/21 10:44:38;;;;;;;12.13;8.03;;;3.10;99.90;;;;;;1955821;70;21182;-78
2021/11/21 10:47:04;;;;;;;13.25;8.90;;;3.10;99.90;;;;;;1977177;71;21128;-77
2021/11/21 10:49:30;;;;;;;15.78;9.58;;;3.10;99.90;;;;;;1977546;71;21130;-73
2021/11/21 10:51:56;;;;;;;19.70;9.25;;;3.10;99.90;;;;;;1971464;70;21459;-75
2021/11/21 10:54:22;;;;;;;14.40;9.00;;;3.10;99.90;;;;;;1973602;70;21483;-75
2021/11/21 10:56:48;;;;;;;19.37;9.53;;;3.00;99.90;;;;;;1970468;71;21129;-75
2021/11/21 10:59:15;;;;;;;18.10;9.63;;;3.00;99.90;;;;;;1951803;72;21060;-78
2021/11/21 11:01:41;;;;;;;17.65;9.38;;;3.20;99.90;;;;;;1978224;70;21044;-81
2021/11/21 11:04:08;;;;;;;13.90;9.38;;;3.20;99.90;;;;;;1966349;72;21116;-79
2021/11/21 11:06:34;;;;;;;13.35;8.70;;;3.20;99.90;;;;;;1977729;70;21121;-80
2021/11/21 11:09:00;;;;;;;17.00;8.50;;;3.40;99.90;;;;;;1977219;72;21121;-78
2021/11/21 11:11:26;;;;;;;16.45;9.98;;;3.40;99.90;;;;;;1969312;70;21063;-79
2021/11/21 11:13:53;;;;;;;14.85;8.80;;;3.50;99.90;;;;;;1950245;70;21064;-79
2021/11/21 11:16:19;;;;;;;17.37;8.80;;;3.50;99.90;;;;;;1967523;70;21068;-79
2021/11/21 11:18:45;;;;;;;14.38;9.63;;;3.30;99.90;;;;;;1981563;70;21031;-77
2021/11/21 11:21:11;;;;;;;18.87;9.70;;;3.20;99.90;;;;;;1983383;72;21070;-78
2021/11/21 11:23:38;;;;;;;16.80;9.83;;;3.20;99.90;;;;;;1934807;71;21064;-78
2021/11/21 11:26:04;;;;;;;16.62;9.58;;;3.20;99.90;;;;;;1958752;72;21160;-79
2021/11/21 11:28:30;;;;;;;14.35;9.80;;;3.10;99.90;;;;;;1977719;71;21536;-78
2021/11/21 11:30:57;;;;;;;16.70;9.60;;;3.10;99.90;;;;;;1954940;70;21445;-78
2021/11/21 11:33:24;;;;;;;17.57;11.22;;;3.10;99.90;;;;;;1976830;71;21068;-77
2021/11/21 11:35:50;;;;;;;21.82;11.00;;;3.30;99.90;;;;;;1958740;71;21058;-78
2021/11/21 11:38:16;;;;;;;16.12;10.40;;;3.50;99.90;;;;;;1980874;72;21028;-77
2021/11/21 11:40:42;;;;;;;21.80;11.40;;;3.60;99.90;;;;;;1959288;71;21425;-77
2021/11/21 11:43:08;;;;;;;14.13;10.03;;;3.70;99.90;;;;;;1927888;70;21029;-81
2021/11/21 11:45:36;;;;;;;16.02;10.48;;;3.80;99.90;;;;;;1968262;70;21206;-81
2021/11/21 11:48:02;;;;;;;13.38;9.58;;;3.80;99.90;;;;;;1972349;72;21523;-78
2021/11/21 11:50:28;;;;;;;16.97;10.70;;;3.70;99.90;;;;;;1979839;70;21060;-81
2021/11/21 11:52:55;;;;;;;17.17;10.32;;;3.70;99.90;;;;;;1979617;72;21056;-80
2021/11/21 11:55:21;;;;;;;15.03;10.18;;;3.60;99.90;;;;;;1984202;70;21084;-77
2021/11/21 11:57:47;;;;;;;16.52;10.68;;;3.60;99.90;;;;;;1928409;71;21424;-77
2021/11/21 12:00:13;;;;;;;20.35;10.75;;;3.50;99.90;;;;;;1951808;70;21614;-79
2021/11/21 12:02:41;;;;;;;18.15;10.75;;;3.60;99.90;;;;;;1960721;70;21119;-78
2021/11/21 12:05:08;;;;;;;19.70;10.38;;;3.50;99.90;;;;;;1983575;70;21067;-79
2021/11/21 12:07:34;;;;;;;20.23;10.70;;;3.40;99.90;;;;;;1975239;71;21067;-80
2021/11/21 12:10:01;;;;;;;17.40;10.55;;;3.50;99.90;;;;;;1981696;70;21133;-80
2021/11/21 12:12:27;;;;;;;20.08;10.88;;;3.60;99.90;;;;;;1971920;70;21483;-80
2021/11/21 12:14:53;;;;;;;19.67;11.25;;;3.80;99.90;;;;;;1971386;71;22579;-80
2021/11/21 12:17:25;;;;;;;18.50;11.22;;;3.80;99.90;;;;;;1973486;71;21500;-80
2021/11/21 12:19:47;;;;;;;17.92;10.82;;;3.70;99.90;;;;;;1972826;70;21213;-81
2021/11/21 12:22:13;;;;;;;15.38;9.78;;;3.70;99.90;;;;;;1966918;70;21066;-81
2021/11/21 12:24:39;;;;;;;15.03;10.75;;;3.70;99.90;;;;;;1965220;70;21105;-81
2021/11/21 12:27:05;;;;;;;17.60;11.03;;;3.80;99.90;;;;;;1975916;72;21071;-80
2021/11/21 12:29:34;;;;;;;16.37;10.78;;;3.70;99.90;;;;;;1961103;70;21432;-82
2021/11/21 12:32:01;;;;;;;16.12;9.80;;;3.70;99.90;;;;;;1977697;70;21181;-79
2021/11/21 12:34:27;;;;;;;17.77;10.45;;;3.60;99.90;;;;;;1935975;72;21043;-80
2021/11/21 12:36:53;;;;;;;19.12;11.05;;;3.60;99.90;;;;;;1898097;74;21128;-80